Terminal Aerodrome Forecast
Issued by NWS Lake Charles, LA

Home | Current Version | Previous Version | Text Only | Print | Product List | Glossary On
Versions: 1 2 3 4 5 6 7 8 9 10 11 12 13 14
000
FTUS44 KLCH 032148 AAA
TAFAEX
TAF AMD
KAEX 032148Z 0322/0418 21008KT P6SM SCT040 BKN250
     FM040200 19006KT P6SM VCSH SCT026 BKN040 BKN250
     FM040900 19004KT 6SM BR VCSH SCT017 BKN035 OVC220
      TEMPO 0411/0413 4SM -SHRA BR BKN017 OVC035
     FM041500 24005KT P6SM VCSH BKN040 OVC220=

USA.gov is the U.S. government's official web portal to all federal, state and local government web resources and services.